sensor_id;sensor_type;location;lat;lon;timestamp;P1;durP1;ratioP1;P2;durP2;ratioP2
35324;SDS011;35135;47.510;19.036;2023-02-15T00:01:29;8.93;;;8.02;;
35324;SDS011;35135;47.510;19.036;2023-02-15T00:03:55;8.27;;;7.47;;
35324;SDS011;35135;47.510;19.036;2023-02-15T00:06:22;7.45;;;6.75;;
35324;SDS011;35135;47.510;19.036;2023-02-15T00:08:48;8.23;;;7.43;;
35324;SDS011;35135;47.510;19.036;2023-02-15T00:11:14;7.70;;;7.00;;
35324;SDS011;35135;47.510;19.036;2023-02-15T00:13:41;7.70;;;7.00;;
35324;SDS011;35135;47.510;19.036;2023-02-15T00:16:09;7.60;;;6.90;;
35324;SDS011;35135;47.510;19.036;2023-02-15T00:18:36;7.45;;;6.70;;
35324;SDS011;35135;47.510;19.036;2023-02-15T00:21:05;7.90;;;6.68;;
35324;SDS011;35135;47.510;19.036;2023-02-15T00:23:35;7.93;;;7.13;;
35324;SDS011;35135;47.510;19.036;2023-02-15T00:26:05;8.13;;;7.38;;
35324;SDS011;35135;47.510;19.036;2023-02-15T00:28:32;8.20;;;7.40;;
35324;SDS011;35135;47.510;19.036;2023-02-15T00:31:04;7.95;;;7.10;;
35324;SDS011;35135;47.510;19.036;2023-02-15T00:33:35;7.53;;;6.63;;
35324;SDS011;35135;47.510;19.036;2023-02-15T00:36:01;7.20;;;6.50;;
35324;SDS011;35135;47.510;19.036;2023-02-15T00:38:28;7.70;;;6.95;;
35324;SDS011;35135;47.510;19.036;2023-02-15T00:40:55;7.30;;;6.55;;
35324;SDS011;35135;47.510;19.036;2023-02-15T00:43:22;8.07;;;6.55;;
35324;SDS011;35135;47.510;19.036;2023-02-15T00:45:47;7.10;;;6.50;;
35324;SDS011;35135;47.510;19.036;2023-02-15T00:48:13;6.82;;;6.18;;
35324;SDS011;35135;47.510;19.036;2023-02-15T00:50:39;7.32;;;6.60;;
35324;SDS011;35135;47.510;19.036;2023-02-15T00:53:05;7.75;;;6.95;;
35324;SDS011;35135;47.510;19.036;2023-02-15T00:55:30;7.40;;;6.70;;
35324;SDS011;35135;47.510;19.036;2023-02-15T00:57:56;7.30;;;6.60;;
35324;SDS011;35135;47.510;19.036;2023-02-15T01:00:22;7.20;;;6.50;;
35324;SDS011;35135;47.510;19.036;2023-02-15T01:02:47;6.78;;;6.07;;
35324;SDS011;35135;47.510;19.036;2023-02-15T01:05:13;7.03;;;6.32;;
35324;SDS011;35135;47.510;19.036;2023-02-15T01:07:39;6.80;;;6.10;;
35324;SDS011;35135;47.510;19.036;2023-02-15T01:10:05;6.95;;;6.25;;
35324;SDS011;35135;47.510;19.036;2023-02-15T01:12:32;8.45;;;6.40;;
35324;SDS011;35135;47.510;19.036;2023-02-15T01:14:58;6.45;;;5.85;;
35324;SDS011;35135;47.510;19.036;2023-02-15T01:17:24;6.50;;;5.90;;
35324;SDS011;35135;47.510;19.036;2023-02-15T01:19:49;7.13;;;6.43;;
35324;SDS011;35135;47.510;19.036;2023-02-15T01:22:16;7.05;;;6.40;;
35324;SDS011;35135;47.510;19.036;2023-02-15T01:24:42;6.03;;;5.53;;
35324;SDS011;35135;47.510;19.036;2023-02-15T01:27:09;6.35;;;5.75;;
35324;SDS011;35135;47.510;19.036;2023-02-15T01:29:35;6.45;;;5.80;;
35324;SDS011;35135;47.510;19.036;2023-02-15T01:32:00;6.40;;;5.80;;
35324;SDS011;35135;47.510;19.036;2023-02-15T01:34:26;6.63;;;6.03;;
35324;SDS011;35135;47.510;19.036;2023-02-15T01:36:53;6.72;;;6.13;;
35324;SDS011;35135;47.510;19.036;2023-02-15T01:39:19;6.38;;;5.78;;
35324;SDS011;35135;47.510;19.036;2023-02-15T01:41:45;6.53;;;6.00;;
35324;SDS011;35135;47.510;19.036;2023-02-15T01:44:40;6.10;;;5.60;;
35324;SDS011;35135;47.510;19.036;2023-02-15T01:55:37;6.10;;;5.50;;
35324;SDS011;35135;47.510;19.036;2023-02-15T01:58:05;6.15;;;5.55;;
35324;SDS011;35135;47.510;19.036;2023-02-15T02:00:32;6.20;;;5.60;;
35324;SDS011;35135;47.510;19.036;2023-02-15T02:02:59;5.72;;;5.22;;
35324;SDS011;35135;47.510;19.036;2023-02-15T02:05:26;6.18;;;5.60;;
35324;SDS011;35135;47.510;19.036;2023-02-15T02:07:54;5.78;;;5.28;;
35324;SDS011;35135;47.510;19.036;2023-02-15T02:10:24;6.55;;;5.85;;
35324;SDS011;35135;47.510;19.036;2023-02-15T02:12:54;5.97;;;5.47;;
35324;SDS011;35135;47.510;19.036;2023-02-15T02:15:33;6.53;;;5.93;;
35324;SDS011;35135;47.510;19.036;2023-02-15T02:18:20;5.55;;;5.05;;
35324;SDS011;35135;47.510;19.036;2023-02-15T02:21:10;6.43;;;5.82;;
35324;SDS011;35135;47.510;19.036;2023-02-15T02:32:24;6.28;;;5.68;;
35324;SDS011;35135;47.510;19.036;2023-02-15T02:35:43;5.75;;;5.25;;
35324;SDS011;35135;47.510;19.036;2023-02-15T02:38:00;6.72;;;5.97;;
35324;SDS011;35135;47.510;19.036;2023-02-15T02:43:18;6.00;;;5.40;;
35324;SDS011;35135;47.510;19.036;2023-02-15T02:45:58;6.38;;;5.78;;
35324;SDS011;35135;47.510;19.036;2023-02-15T02:48:30;6.25;;;5.75;;
35324;SDS011;35135;47.510;19.036;2023-02-15T02:50:58;6.72;;;6.13;;
35324;SDS011;35135;47.510;19.036;2023-02-15T02:53:23;6.70;;;6.10;;
35324;SDS011;35135;47.510;19.036;2023-02-15T02:55:58;6.35;;;5.75;;
35324;SDS011;35135;47.510;19.036;2023-02-15T02:58:33;6.40;;;5.85;;
35324;SDS011;35135;47.510;19.036;2023-02-15T03:04:05;6.63;;;6.03;;
35324;SDS011;35135;47.510;19.036;2023-02-15T03:06:44;6.40;;;5.80;;
35324;SDS011;35135;47.510;19.036;2023-02-15T03:09:25;7.63;;;6.93;;
35324;SDS011;35135;47.510;19.036;2023-02-15T03:12:10;7.18;;;6.50;;
35324;SDS011;35135;47.510;19.036;2023-02-15T03:14:39;7.75;;;6.50;;
35324;SDS011;35135;47.510;19.036;2023-02-15T03:17:07;7.07;;;6.47;;
35324;SDS011;35135;47.510;19.036;2023-02-15T03:19:35;7.03;;;6.30;;
35324;SDS011;35135;47.510;19.036;2023-02-15T03:22:04;7.15;;;6.47;;
35324;SDS011;35135;47.510;19.036;2023-02-15T03:24:37;7.85;;;7.07;;
35324;SDS011;35135;47.510;19.036;2023-02-15T03:27:31;7.00;;;6.40;;
35324;SDS011;35135;47.510;19.036;2023-02-15T03:30:03;7.88;;;7.07;;
35324;SDS011;35135;47.510;19.036;2023-02-15T03:32:30;6.75;;;6.15;;
35324;SDS011;35135;47.510;19.036;2023-02-15T03:34:58;7.35;;;6.65;;
35324;SDS011;35135;47.510;19.036;2023-02-15T03:40:23;7.38;;;6.68;;
35324;SDS011;35135;47.510;19.036;2023-02-15T03:45:56;7.03;;;6.40;;
35324;SDS011;35135;47.510;19.036;2023-02-15T03:49:50;7.87;;;7.10;;
35324;SDS011;35135;47.510;19.036;2023-02-15T03:51:46;8.55;;;7.10;;
35324;SDS011;35135;47.510;19.036;2023-02-15T03:54:18;8.20;;;7.40;;
35324;SDS011;35135;47.510;19.036;2023-02-15T03:57:06;7.20;;;6.60;;
35324;SDS011;35135;47.510;19.036;2023-02-15T03:59:53;7.03;;;6.32;;
35324;SDS011;35135;47.510;19.036;2023-02-15T04:02:46;7.45;;;6.75;;
35324;SDS011;35135;47.510;19.036;2023-02-15T04:05:22;7.82;;;7.07;;
35324;SDS011;35135;47.510;19.036;2023-02-15T04:07:48;6.72;;;6.13;;
35324;SDS011;35135;47.510;19.036;2023-02-15T04:10:14;7.28;;;6.57;;
35324;SDS011;35135;47.510;19.036;2023-02-15T04:12:58;7.15;;;6.45;;
35324;SDS011;35135;47.510;19.036;2023-02-15T04:15:23;7.07;;;6.47;;
35324;SDS011;35135;47.510;19.036;2023-02-15T04:18:07;7.55;;;6.85;;
35324;SDS011;35135;47.510;19.036;2023-02-15T04:20:33;7.25;;;6.55;;
35324;SDS011;35135;47.510;19.036;2023-02-15T04:23:17;6.57;;;5.97;;
35324;SDS011;35135;47.510;19.036;2023-02-15T04:26:05;7.18;;;6.50;;
35324;SDS011;35135;47.510;19.036;2023-02-15T04:28:31;7.05;;;6.45;;
35324;SDS011;35135;47.510;19.036;2023-02-15T04:30:57;6.50;;;5.90;;
35324;SDS011;35135;47.510;19.036;2023-02-15T04:33:22;8.45;;;7.28;;
35324;SDS011;35135;47.510;19.036;2023-02-15T04:35:48;6.82;;;6.15;;
35324;SDS011;35135;47.510;19.036;2023-02-15T04:38:14;6.97;;;6.32;;
35324;SDS011;35135;47.510;19.036;2023-02-15T04:40:39;6.50;;;5.90;;
35324;SDS011;35135;47.510;19.036;2023-02-15T04:43:05;6.88;;;6.28;;
35324;SDS011;35135;47.510;19.036;2023-02-15T04:45:30;6.97;;;6.28;;
35324;SDS011;35135;47.510;19.036;2023-02-15T04:47:56;7.03;;;6.43;;
35324;SDS011;35135;47.510;19.036;2023-02-15T04:50:22;6.78;;;6.10;;
35324;SDS011;35135;47.510;19.036;2023-02-15T04:52:47;6.63;;;6.03;;
35324;SDS011;35135;47.510;19.036;2023-02-15T04:55:13;6.38;;;5.80;;
35324;SDS011;35135;47.510;19.036;2023-02-15T04:57:39;6.45;;;5.85;;
35324;SDS011;35135;47.510;19.036;2023-02-15T05:00:05;6.55;;;5.53;;
35324;SDS011;35135;47.510;19.036;2023-02-15T05:02:31;6.38;;;5.78;;
35324;SDS011;35135;47.510;19.036;2023-02-15T05:04:57;6.65;;;6.03;;
35324;SDS011;35135;47.510;19.036;2023-02-15T05:07:22;6.60;;;5.90;;
35324;SDS011;35135;47.510;19.036;2023-02-15T05:09:48;6.10;;;5.50;;
35324;SDS011;35135;47.510;19.036;2023-02-15T05:12:14;6.05;;;5.55;;
35324;SDS011;35135;47.510;19.036;2023-02-15T05:14:40;6.28;;;5.68;;
35324;SDS011;35135;47.510;19.036;2023-02-15T05:17:06;6.22;;;5.63;;
35324;SDS011;35135;47.510;19.036;2023-02-15T05:19:31;6.72;;;6.13;;
35324;SDS011;35135;47.510;19.036;2023-02-15T05:21:58;6.07;;;5.50;;
35324;SDS011;35135;47.510;19.036;2023-02-15T05:24:24;6.35;;;5.75;;
35324;SDS011;35135;47.510;19.036;2023-02-15T05:27:10;6.43;;;5.82;;
35324;SDS011;35135;47.510;19.036;2023-02-15T05:29:54;6.70;;;6.10;;
35324;SDS011;35135;47.510;19.036;2023-02-15T05:32:20;6.18;;;5.68;;
35324;SDS011;35135;47.510;19.036;2023-02-15T05:34:46;5.93;;;5.30;;
35324;SDS011;35135;47.510;19.036;2023-02-15T05:37:11;6.15;;;5.55;;
35324;SDS011;35135;47.510;19.036;2023-02-15T05:39:37;6.32;;;5.72;;
35324;SDS011;35135;47.510;19.036;2023-02-15T05:42:03;6.07;;;5.47;;
35324;SDS011;35135;47.510;19.036;2023-02-15T05:44:29;6.05;;;5.45;;
35324;SDS011;35135;47.510;19.036;2023-02-15T05:46:54;6.13;;;5.53;;
35324;SDS011;35135;47.510;19.036;2023-02-15T05:49:20;7.10;;;5.80;;
35324;SDS011;35135;47.510;19.036;2023-02-15T05:51:46;6.18;;;5.68;;
35324;SDS011;35135;47.510;19.036;2023-02-15T05:54:11;6.63;;;5.90;;
35324;SDS011;35135;47.510;19.036;2023-02-15T05:56:37;5.97;;;5.38;;
35324;SDS011;35135;47.510;19.036;2023-02-15T05:59:03;5.95;;;5.45;;
35324;SDS011;35135;47.510;19.036;2023-02-15T06:01:28;6.15;;;5.55;;
35324;SDS011;35135;47.510;19.036;2023-02-15T06:03:54;6.25;;;5.72;;
35324;SDS011;35135;47.510;19.036;2023-02-15T06:06:21;6.57;;;5.97;;
35324;SDS011;35135;47.510;19.036;2023-02-15T06:08:47;6.38;;;5.78;;
35324;SDS011;35135;47.510;19.036;2023-02-15T06:11:12;6.03;;;5.50;;
35324;SDS011;35135;47.510;19.036;2023-02-15T06:13:38;6.47;;;5.88;;
35324;SDS011;35135;47.510;19.036;2023-02-15T06:16:04;8.32;;;6.30;;
35324;SDS011;35135;47.510;19.036;2023-02-15T06:18:30;6.53;;;5.88;;
35324;SDS011;35135;47.510;19.036;2023-02-15T06:20:55;9.95;;;6.03;;
35324;SDS011;35135;47.510;19.036;2023-02-15T06:23:21;9.75;;;7.05;;
35324;SDS011;35135;47.510;19.036;2023-02-15T06:25:47;7.63;;;6.90;;
35324;SDS011;35135;47.510;19.036;2023-02-15T06:28:12;10.52;;;7.20;;
35324;SDS011;35135;47.510;19.036;2023-02-15T06:30:38;9.35;;;7.18;;
35324;SDS011;35135;47.510;19.036;2023-02-15T06:33:04;10.95;;;7.70;;
35324;SDS011;35135;47.510;19.036;2023-02-15T06:35:30;7.78;;;7.03;;
35324;SDS011;35135;47.510;19.036;2023-02-15T06:37:55;19.75;;;8.18;;
35324;SDS011;35135;47.510;19.036;2023-02-15T06:40:21;15.65;;;7.90;;
35324;SDS011;35135;47.510;19.036;2023-02-15T06:42:47;11.57;;;7.65;;
35324;SDS011;35135;47.510;19.036;2023-02-15T06:45:13;18.13;;;8.25;;
35324;SDS011;35135;47.510;19.036;2023-02-15T06:47:39;14.68;;;7.78;;
35324;SDS011;35135;47.510;19.036;2023-02-15T06:50:05;12.98;;;8.18;;
35324;SDS011;35135;47.510;19.036;2023-02-15T06:52:31;14.93;;;8.00;;
35324;SDS011;35135;47.510;19.036;2023-02-15T06:54:57;10.43;;;7.95;;
35324;SDS011;35135;47.510;19.036;2023-02-15T06:57:23;12.85;;;8.10;;
35324;SDS011;35135;47.510;19.036;2023-02-15T06:59:48;10.07;;;6.97;;
35324;SDS011;35135;47.510;19.036;2023-02-15T07:02:14;10.82;;;7.88;;
35324;SDS011;35135;47.510;19.036;2023-02-15T07:04:40;12.98;;;8.00;;
35324;SDS011;35135;47.510;19.036;2023-02-15T07:07:09;12.55;;;7.53;;
35324;SDS011;35135;47.510;19.036;2023-02-15T07:09:36;9.52;;;7.57;;
35324;SDS011;35135;47.510;19.036;2023-02-15T07:12:02;9.43;;;7.50;;
35324;SDS011;35135;47.510;19.036;2023-02-15T07:14:46;10.88;;;7.20;;
35324;SDS011;35135;47.510;19.036;2023-02-15T07:17:12;10.93;;;7.90;;
35324;SDS011;35135;47.510;19.036;2023-02-15T07:19:38;10.38;;;7.50;;
35324;SDS011;35135;47.510;19.036;2023-02-15T07:22:03;13.32;;;7.40;;
35324;SDS011;35135;47.510;19.036;2023-02-15T07:24:29;10.02;;;7.95;;
35324;SDS011;35135;47.510;19.036;2023-02-15T07:26:55;8.70;;;7.30;;
35324;SDS011;35135;47.510;19.036;2023-02-15T07:29:22;10.73;;;7.50;;
35324;SDS011;35135;47.510;19.036;2023-02-15T07:31:48;12.05;;;8.40;;
35324;SDS011;35135;47.510;19.036;2023-02-15T07:34:14;8.98;;;7.45;;
35324;SDS011;35135;47.510;19.036;2023-02-15T07:36:40;12.55;;;8.32;;
35324;SDS011;35135;47.510;19.036;2023-02-15T07:39:08;10.90;;;7.88;;
35324;SDS011;35135;47.510;19.036;2023-02-15T07:41:34;9.88;;;7.43;;
35324;SDS011;35135;47.510;19.036;2023-02-15T07:44:00;11.63;;;7.88;;
35324;SDS011;35135;47.510;19.036;2023-02-15T07:46:26;12.50;;;7.78;;
35324;SDS011;35135;47.510;19.036;2023-02-15T07:48:51;8.40;;;7.57;;
35324;SDS011;35135;47.510;19.036;2023-02-15T07:51:17;10.07;;;7.97;;
35324;SDS011;35135;47.510;19.036;2023-02-15T07:53:43;13.10;;;8.23;;
35324;SDS011;35135;47.510;19.036;2023-02-15T07:56:10;12.35;;;8.02;;
35324;SDS011;35135;47.510;19.036;2023-02-15T07:58:37;9.15;;;7.68;;
35324;SDS011;35135;47.510;19.036;2023-02-15T08:01:18;14.43;;;8.85;;
35324;SDS011;35135;47.510;19.036;2023-02-15T08:03:47;10.75;;;7.75;;
35324;SDS011;35135;47.510;19.036;2023-02-15T08:06:13;9.55;;;8.20;;
35324;SDS011;35135;47.510;19.036;2023-02-15T08:08:39;9.10;;;7.82;;
35324;SDS011;35135;47.510;19.036;2023-02-15T08:13:54;9.82;;;8.13;;
35324;SDS011;35135;47.510;19.036;2023-02-15T08:18:57;11.13;;;8.15;;
35324;SDS011;35135;47.510;19.036;2023-02-15T08:21:25;10.10;;;8.38;;
35324;SDS011;35135;47.510;19.036;2023-02-15T08:23:53;10.77;;;8.57;;
35324;SDS011;35135;47.510;19.036;2023-02-15T08:26:19;9.13;;;7.93;;
35324;SDS011;35135;47.510;19.036;2023-02-15T08:28:46;10.80;;;8.30;;
35324;SDS011;35135;47.510;19.036;2023-02-15T08:31:12;11.40;;;7.95;;
35324;SDS011;35135;47.510;19.036;2023-02-15T08:33:39;8.82;;;7.90;;
35324;SDS011;35135;47.510;19.036;2023-02-15T08:36:10;9.55;;;7.85;;
35324;SDS011;35135;47.510;19.036;2023-02-15T08:38:37;9.32;;;7.50;;
35324;SDS011;35135;47.510;19.036;2023-02-15T08:41:22;8.65;;;7.72;;
35324;SDS011;35135;47.510;19.036;2023-02-15T08:43:54;9.70;;;8.00;;
35324;SDS011;35135;47.510;19.036;2023-02-15T08:46:21;8.77;;;7.85;;
35324;SDS011;35135;47.510;19.036;2023-02-15T08:48:48;8.75;;;7.88;;
35324;SDS011;35135;47.510;19.036;2023-02-15T08:51:16;8.20;;;7.40;;
35324;SDS011;35135;47.510;19.036;2023-02-15T08:53:47;7.60;;;6.90;;
35324;SDS011;35135;47.510;19.036;2023-02-15T08:56:14;9.13;;;8.05;;
35324;SDS011;35135;47.510;19.036;2023-02-15T08:58:40;10.32;;;8.38;;
35324;SDS011;35135;47.510;19.036;2023-02-15T09:01:10;8.68;;;7.88;;
35324;SDS011;35135;47.510;19.036;2023-02-15T09:03:37;9.13;;;8.23;;
35324;SDS011;35135;47.510;19.036;2023-02-15T09:06:03;10.40;;;8.60;;
35324;SDS011;35135;47.510;19.036;2023-02-15T09:08:29;10.32;;;7.68;;
35324;SDS011;35135;47.510;19.036;2023-02-15T09:11:04;9.60;;;8.20;;
35324;SDS011;35135;47.510;19.036;2023-02-15T09:13:34;9.40;;;8.07;;
35324;SDS011;35135;47.510;19.036;2023-02-15T09:16:01;9.00;;;8.10;;
35324;SDS011;35135;47.510;19.036;2023-02-15T09:18:29;8.45;;;7.65;;
35324;SDS011;35135;47.510;19.036;2023-02-15T09:20:56;9.75;;;8.23;;
35324;SDS011;35135;47.510;19.036;2023-02-15T09:23:22;9.45;;;8.43;;
35324;SDS011;35135;47.510;19.036;2023-02-15T09:25:47;9.25;;;8.32;;
35324;SDS011;35135;47.510;19.036;2023-02-15T09:28:13;9.30;;;8.18;;
35324;SDS011;35135;47.510;19.036;2023-02-15T09:30:39;9.13;;;8.23;;
35324;SDS011;35135;47.510;19.036;2023-02-15T09:33:04;11.27;;;8.43;;
35324;SDS011;35135;47.510;19.036;2023-02-15T09:35:30;9.50;;;8.50;;
35324;SDS011;35135;47.510;19.036;2023-02-15T09:37:55;9.40;;;8.35;;
35324;SDS011;35135;47.510;19.036;2023-02-15T09:40:21;10.63;;;8.50;;
35324;SDS011;35135;47.510;19.036;2023-02-15T09:42:51;9.57;;;8.55;;
35324;SDS011;35135;47.510;19.036;2023-02-15T09:46:04;9.40;;;8.45;;
35324;SDS011;35135;47.510;19.036;2023-02-15T09:48:40;8.48;;;7.65;;
35324;SDS011;35135;47.510;19.036;2023-02-15T09:51:17;9.25;;;8.35;;
35324;SDS011;35135;47.510;19.036;2023-02-15T10:10:21;8.73;;;7.88;;
35324;SDS011;35135;47.510;19.036;2023-02-15T10:18:21;9.70;;;8.75;;
35324;SDS011;35135;47.510;19.036;2023-02-15T10:26:46;9.10;;;8.20;;
35324;SDS011;35135;47.510;19.036;2023-02-15T10:32:15;8.60;;;7.70;;
35324;SDS011;35135;47.510;19.036;2023-02-15T10:34:52;9.32;;;8.30;;
35324;SDS011;35135;47.510;19.036;2023-02-15T10:37:44;9.68;;;7.95;;
35324;SDS011;35135;47.510;19.036;2023-02-15T10:42:57;9.10;;;8.00;;
35324;SDS011;35135;47.510;19.036;2023-02-15T10:45:40;9.15;;;8.32;;
35324;SDS011;35135;47.510;19.036;2023-02-15T10:50:59;10.23;;;9.23;;
35324;SDS011;35135;47.510;19.036;2023-02-15T10:53:31;8.73;;;7.93;;
35324;SDS011;35135;47.510;19.036;2023-02-15T11:04:35;8.50;;;7.60;;
35324;SDS011;35135;47.510;19.036;2023-02-15T11:07:20;8.68;;;7.88;;
35324;SDS011;35135;47.510;19.036;2023-02-15T11:09:50;9.47;;;8.57;;
35324;SDS011;35135;47.510;19.036;2023-02-15T11:12:26;9.65;;;8.68;;
35324;SDS011;35135;47.510;19.036;2023-02-15T11:17:43;9.48;;;8.57;;
35324;SDS011;35135;47.510;19.036;2023-02-15T11:22:50;9.23;;;8.32;;
35324;SDS011;35135;47.510;19.036;2023-02-15T11:25:19;8.80;;;7.97;;
35324;SDS011;35135;47.510;19.036;2023-02-15T11:27:49;9.60;;;8.35;;
35324;SDS011;35135;47.510;19.036;2023-02-15T11:30:21;9.55;;;8.55;;
35324;SDS011;35135;47.510;19.036;2023-02-15T11:32:53;8.68;;;7.78;;
35324;SDS011;35135;47.510;19.036;2023-02-15T11:35:31;10.50;;;9.05;;
35324;SDS011;35135;47.510;19.036;2023-02-15T11:40:48;10.00;;;9.00;;
35324;SDS011;35135;47.510;19.036;2023-02-15T11:43:17;9.25;;;8.35;;
35324;SDS011;35135;47.510;19.036;2023-02-15T11:45:48;9.35;;;8.43;;
35324;SDS011;35135;47.510;19.036;2023-02-15T11:48:14;9.45;;;8.50;;
35324;SDS011;35135;47.510;19.036;2023-02-15T11:50:43;9.75;;;8.75;;
35324;SDS011;35135;47.510;19.036;2023-02-15T11:53:17;9.07;;;8.27;;
35324;SDS011;35135;47.510;19.036;2023-02-15T11:55:48;9.55;;;8.63;;
35324;SDS011;35135;47.510;19.036;2023-02-15T12:01:10;9.23;;;8.32;;
35324;SDS011;35135;47.510;19.036;2023-02-15T12:04:04;9.03;;;8.13;;
35324;SDS011;35135;47.510;19.036;2023-02-15T12:06:54;9.27;;;8.43;;
35324;SDS011;35135;47.510;19.036;2023-02-15T12:12:26;10.00;;;8.70;;
35324;SDS011;35135;47.510;19.036;2023-02-15T12:14:55;10.98;;;8.00;;
35324;SDS011;35135;47.510;19.036;2023-02-15T12:17:26;9.07;;;8.27;;
35324;SDS011;35135;47.510;19.036;2023-02-15T12:19:55;9.15;;;8.23;;
35324;SDS011;35135;47.510;19.036;2023-02-15T12:22:26;9.70;;;8.05;;
35324;SDS011;35135;47.510;19.036;2023-02-15T12:24:54;8.77;;;7.93;;
35324;SDS011;35135;47.510;19.036;2023-02-15T12:27:33;9.10;;;8.07;;
35324;SDS011;35135;47.510;19.036;2023-02-15T12:30:04;9.43;;;8.48;;
35324;SDS011;35135;47.510;19.036;2023-02-15T12:32:36;9.30;;;8.40;;
35324;SDS011;35135;47.510;19.036;2023-02-15T12:38:01;8.80;;;7.90;;
35324;SDS011;35135;47.510;19.036;2023-02-15T12:41:02;9.95;;;7.97;;
35324;SDS011;35135;47.510;19.036;2023-02-15T12:43:34;9.20;;;8.23;;
35324;SDS011;35135;47.510;19.036;2023-02-15T12:46:12;12.30;;;8.13;;
35324;SDS011;35135;47.510;19.036;2023-02-15T12:48:39;9.75;;;7.85;;
35324;SDS011;35135;47.510;19.036;2023-02-15T12:51:08;8.93;;;8.00;;
35324;SDS011;35135;47.510;19.036;2023-02-15T12:53:38;8.73;;;7.88;;
35324;SDS011;35135;47.510;19.036;2023-02-15T12:56:05;8.95;;;8.05;;
35324;SDS011;35135;47.510;19.036;2023-02-15T12:58:34;11.38;;;8.80;;
35324;SDS011;35135;47.510;19.036;2023-02-15T13:03:37;9.35;;;8.38;;
35324;SDS011;35135;47.510;19.036;2023-02-15T13:06:17;10.32;;;8.80;;
35324;SDS011;35135;47.510;19.036;2023-02-15T13:08:50;9.05;;;8.20;;
35324;SDS011;35135;47.510;19.036;2023-02-15T13:11:26;9.23;;;8.18;;
35324;SDS011;35135;47.510;19.036;2023-02-15T13:13:59;9.25;;;7.88;;
35324;SDS011;35135;47.510;19.036;2023-02-15T13:16:30;9.07;;;8.15;;
35324;SDS011;35135;47.510;19.036;2023-02-15T13:19:36;10.45;;;7.95;;
35324;SDS011;35135;47.510;19.036;2023-02-15T13:22:40;8.38;;;7.40;;
35324;SDS011;35135;47.510;19.036;2023-02-15T13:25:14;8.35;;;7.45;;
35324;SDS011;35135;47.510;19.036;2023-02-15T13:27:51;9.05;;;8.15;;
35324;SDS011;35135;47.510;19.036;2023-02-15T13:32:46;8.52;;;7.72;;
35324;SDS011;35135;47.510;19.036;2023-02-15T13:35:16;9.18;;;8.10;;
35324;SDS011;35135;47.510;19.036;2023-02-15T13:40:30;10.15;;;9.07;;
35324;SDS011;35135;47.510;19.036;2023-02-15T13:51:48;8.57;;;7.55;;
35324;SDS011;35135;47.510;19.036;2023-02-15T14:02:21;8.85;;;7.93;;
35324;SDS011;35135;47.510;19.036;2023-02-15T14:07:39;7.90;;;7.05;;
35324;SDS011;35135;47.510;19.036;2023-02-15T14:14:22;7.75;;;7.05;;
35324;SDS011;35135;47.510;19.036;2023-02-15T14:17:04;8.23;;;6.95;;
35324;SDS011;35135;47.510;19.036;2023-02-15T14:19:51;7.50;;;6.80;;
35324;SDS011;35135;47.510;19.036;2023-02-15T14:22:41;7.85;;;7.05;;
35324;SDS011;35135;47.510;19.036;2023-02-15T14:30:27;10.07;;;6.95;;
35324;SDS011;35135;47.510;19.036;2023-02-15T14:33:00;7.60;;;6.90;;
35324;SDS011;35135;47.510;19.036;2023-02-15T14:35:31;7.70;;;6.95;;
35324;SDS011;35135;47.510;19.036;2023-02-15T14:46:07;7.70;;;6.97;;
35324;SDS011;35135;47.510;19.036;2023-02-15T14:48:49;9.73;;;7.22;;
35324;SDS011;35135;47.510;19.036;2023-02-15T14:54:07;7.15;;;6.45;;
35324;SDS011;35135;47.510;19.036;2023-02-15T14:56:34;7.15;;;6.32;;
35324;SDS011;35135;47.510;19.036;2023-02-15T14:59:20;7.72;;;6.47;;
35324;SDS011;35135;47.510;19.036;2023-02-15T15:02:00;6.53;;;5.82;;
35324;SDS011;35135;47.510;19.036;2023-02-15T15:12:49;7.95;;;6.72;;
35324;SDS011;35135;47.510;19.036;2023-02-15T15:17:56;7.18;;;6.45;;
35324;SDS011;35135;47.510;19.036;2023-02-15T15:20:47;7.70;;;6.57;;
35324;SDS011;35135;47.510;19.036;2023-02-15T15:31:17;10.48;;;8.63;;
35324;SDS011;35135;47.510;19.036;2023-02-15T15:49:50;8.68;;;7.78;;
35324;SDS011;35135;47.510;19.036;2023-02-15T15:52:21;9.75;;;8.63;;
35324;SDS011;35135;47.510;19.036;2023-02-15T15:54:51;8.70;;;7.72;;
35324;SDS011;35135;47.510;19.036;2023-02-15T15:59:50;8.85;;;7.95;;
35324;SDS011;35135;47.510;19.036;2023-02-15T16:02:16;9.73;;;7.53;;
35324;SDS011;35135;47.510;19.036;2023-02-15T16:04:43;11.30;;;7.95;;
35324;SDS011;35135;47.510;19.036;2023-02-15T16:12:34;13.63;;;8.05;;
35324;SDS011;35135;47.510;19.036;2023-02-15T16:15:04;13.15;;;7.65;;
35324;SDS011;35135;47.510;19.036;2023-02-15T16:17:43;13.90;;;8.23;;
35324;SDS011;35135;47.510;19.036;2023-02-15T16:20:16;15.80;;;8.13;;
35324;SDS011;35135;47.510;19.036;2023-02-15T16:22:46;15.73;;;8.27;;
35324;SDS011;35135;47.510;19.036;2023-02-15T16:28:12;11.93;;;6.90;;
35324;SDS011;35135;47.510;19.036;2023-02-15T16:30:38;12.25;;;7.68;;
35324;SDS011;35135;47.510;19.036;2023-02-15T16:33:33;9.48;;;6.72;;
35324;SDS011;35135;47.510;19.036;2023-02-15T16:35:59;12.13;;;7.25;;
35324;SDS011;35135;47.510;19.036;2023-02-15T16:41:12;10.88;;;7.03;;
35324;SDS011;35135;47.510;19.036;2023-02-15T16:44:00;8.77;;;7.22;;
35324;SDS011;35135;47.510;19.036;2023-02-15T16:46:39;11.90;;;7.35;;
35324;SDS011;35135;47.510;19.036;2023-02-15T16:49:27;12.55;;;7.22;;
35324;SDS011;35135;47.510;19.036;2023-02-15T16:52:01;10.98;;;6.43;;
35324;SDS011;35135;47.510;19.036;2023-02-15T16:54:31;10.63;;;6.70;;
35324;SDS011;35135;47.510;19.036;2023-02-15T16:56:58;8.48;;;6.18;;
35324;SDS011;35135;47.510;19.036;2023-02-15T16:59:28;8.05;;;6.25;;
35324;SDS011;35135;47.510;19.036;2023-02-15T17:02:14;9.45;;;6.50;;
35324;SDS011;35135;47.510;19.036;2023-02-15T17:04:42;9.88;;;7.10;;
35324;SDS011;35135;47.510;19.036;2023-02-15T17:07:18;9.52;;;7.03;;
35324;SDS011;35135;47.510;19.036;2023-02-15T17:09:54;9.95;;;7.10;;
35324;SDS011;35135;47.510;19.036;2023-02-15T17:18:11;10.18;;;6.72;;
35324;SDS011;35135;47.510;19.036;2023-02-15T17:20:43;13.98;;;7.00;;
35324;SDS011;35135;47.510;19.036;2023-02-15T17:25:54;11.32;;;7.20;;
35324;SDS011;35135;47.510;19.036;2023-02-15T17:28:22;13.95;;;6.95;;
35324;SDS011;35135;47.510;19.036;2023-02-15T17:30:53;9.40;;;7.13;;
35324;SDS011;35135;47.510;19.036;2023-02-15T17:33:35;9.65;;;7.32;;
35324;SDS011;35135;47.510;19.036;2023-02-15T17:38:36;9.95;;;7.13;;
35324;SDS011;35135;47.510;19.036;2023-02-15T17:41:03;7.57;;;6.45;;
35324;SDS011;35135;47.510;19.036;2023-02-15T17:43:29;8.65;;;6.78;;
35324;SDS011;35135;47.510;19.036;2023-02-15T17:45:56;13.45;;;8.00;;
35324;SDS011;35135;47.510;19.036;2023-02-15T17:48:40;19.30;;;8.35;;
35324;SDS011;35135;47.510;19.036;2023-02-15T17:51:09;16.92;;;9.90;;
35324;SDS011;35135;47.510;19.036;2023-02-15T17:53:37;14.80;;;9.25;;
35324;SDS011;35135;47.510;19.036;2023-02-15T17:56:03;17.98;;;9.27;;
35324;SDS011;35135;47.510;19.036;2023-02-15T17:58:35;16.42;;;10.77;;
35324;SDS011;35135;47.510;19.036;2023-02-15T18:01:02;15.32;;;10.18;;
35324;SDS011;35135;47.510;19.036;2023-02-15T18:03:51;19.15;;;11.07;;
35324;SDS011;35135;47.510;19.036;2023-02-15T18:06:40;17.40;;;10.68;;
35324;SDS011;35135;47.510;19.036;2023-02-15T18:09:25;24.77;;;11.20;;
35324;SDS011;35135;47.510;19.036;2023-02-15T18:14:45;28.30;;;11.80;;
35324;SDS011;35135;47.510;19.036;2023-02-15T18:17:12;21.95;;;12.35;;
35324;SDS011;35135;47.510;19.036;2023-02-15T18:19:39;21.83;;;11.80;;